SVA1132 OERK-OEDF
Flight info
| Callsign | SVA1132 |
|---|---|
| Flight time | 0h 34m |
| Altitude | 25000 |
| Route | EGPIN1D EGPIN H744 ITUNI N687 MIBRA MIBRA2L |
| Aircraft | A320/M-SDE3FGHIRWY/LB1 |
Departure
| Time | 2026-04-28 13:23 |
|---|---|
| Airport | King Khalid International Airport (OERK) |
Arrival
| Time | 2026-04-28 13:57 |
|---|---|
| Airport | King Fahd International Airport (OEDF) |
| Time | Latitude | Longitude | Altitude | Speed | Heading |
|---|---|---|---|---|---|
| 2026-04-28 12:54 | 24.95935 | 46.70506 | 2043 ft | 0 kts | 236° |
| 2026-04-28 13:03 | 24.95935 | 46.70507 | 2043 ft | 0 kts | 236° |
| 2026-04-28 13:09 | 24.95944 | 46.70522 | 2024 ft | 2 kts | 236° |
| 2026-04-28 13:10 | 24.95953 | 46.70536 | 2045 ft | 2 kts | 236° |
| 2026-04-28 13:10 | 24.95962 | 46.70551 | 2048 ft | 2 kts | 236° |
| 2026-04-28 13:10 | 24.95971 | 46.70566 | 2043 ft | 2 kts | 236° |
| 2026-04-28 13:10 | 24.95980 | 46.70581 | 2043 ft | 2 kts | 236° |
| 2026-04-28 13:11 | 24.95991 | 46.70594 | 2043 ft | 2 kts | 210° |
| 2026-04-28 13:11 | 24.96007 | 46.70599 | 2043 ft | 2 kts | 176° |
| 2026-04-28 13:11 | 24.96022 | 46.70595 | 2043 ft | 2 kts | 151° |
| 2026-04-28 13:11 | 24.96028 | 46.70591 | 2047 ft | 0 kts | 151° |
| 2026-04-28 13:15 | 24.96016 | 46.70598 | 2043 ft | 5 kts | 151° |
| 2026-04-28 13:15 | 24.95967 | 46.70631 | 2043 ft | 12 kts | 149° |
| 2026-04-28 13:16 | 24.95878 | 46.70690 | 2043 ft | 18 kts | 144° |
| 2026-04-28 13:16 | 24.95871 | 46.70780 | 2046 ft | 11 kts | 66° |
| 2026-04-28 13:16 | 24.95912 | 46.70859 | 2043 ft | 10 kts | 60° |
| 2026-04-28 13:16 | 24.95933 | 46.70900 | 2043 ft | 8 kts | 64° |
| 2026-04-28 13:17 | 24.95915 | 46.70975 | 2044 ft | 14 kts | 140° |
| 2026-04-28 13:17 | 24.95822 | 46.71036 | 2042 ft | 12 kts | 150° |
| 2026-04-28 13:17 | 24.95747 | 46.71082 | 2042 ft | 12 kts | 150° |
| 2026-04-28 13:17 | 24.95681 | 46.71123 | 2042 ft | 10 kts | 151° |
| 2026-04-28 13:18 | 24.95623 | 46.71161 | 2042 ft | 12 kts | 148° |
| 2026-04-28 13:18 | 24.95554 | 46.71205 | 2042 ft | 11 kts | 150° |
| 2026-04-28 13:18 | 24.95494 | 46.71243 | 2042 ft | 10 kts | 150° |
| 2026-04-28 13:18 | 24.95396 | 46.71305 | 2042 ft | 20 kts | 151° |
| 2026-04-28 13:19 | 24.95273 | 46.71382 | 2042 ft | 21 kts | 151° |
| 2026-04-28 13:19 | 24.95141 | 46.71466 | 2045 ft | 23 kts | 150° |
| 2026-04-28 13:19 | 24.95001 | 46.71556 | 2042 ft | 24 kts | 150° |
| 2026-04-28 13:19 | 24.94901 | 46.71619 | 2042 ft | 25 kts | 150° |
| 2026-04-28 13:20 | 24.94790 | 46.71689 | 2042 ft | 14 kts | 150° |
| 2026-04-28 13:20 | 24.94709 | 46.71739 | 2042 ft | 13 kts | 149° |
| 2026-04-28 13:20 | 24.94654 | 46.71777 | 2042 ft | 8 kts | 148° |
| 2026-04-28 13:20 | 24.94608 | 46.71807 | 2042 ft | 7 kts | 150° |
| 2026-04-28 13:21 | 24.94569 | 46.71831 | 2044 ft | 6 kts | 150° |
| 2026-04-28 13:21 | 24.94531 | 46.71854 | 2042 ft | 11 kts | 151° |
| 2026-04-28 13:21 | 24.94432 | 46.71963 | 2041 ft | 20 kts | 76° |
| 2026-04-28 13:21 | 24.94466 | 46.72032 | 2039 ft | 10 kts | 61° |
| 2026-04-28 13:22 | 24.94503 | 46.72104 | 2038 ft | 12 kts | 60° |
| 2026-04-28 13:22 | 24.94570 | 46.72163 | 2034 ft | 12 kts | 358° |
| 2026-04-28 13:22 | 24.94624 | 46.72137 | 2037 ft | 5 kts | 329° |
| 2026-04-28 13:22 | 24.94760 | 46.72047 | 2037 ft | 61 kts | 329° |
| 2026-04-28 13:23 | 24.95404 | 46.71638 | 2033 ft | 147 kts | 329° |
| 2026-04-28 13:23 | 24.96450 | 46.70980 | 2417 ft | 182 kts | 329° |
| 2026-04-28 13:23 | 24.97622 | 46.70320 | 3306 ft | 194 kts | 331° |
| 2026-04-28 13:23 | 24.98931 | 46.69710 | 3667 ft | 215 kts | 335° |
| 2026-04-28 13:24 | 25.00414 | 46.69084 | 3955 ft | 236 kts | 336° |
| 2026-04-28 13:24 | 25.02035 | 46.68426 | 4341 ft | 257 kts | 338° |
| 2026-04-28 13:24 | 25.03743 | 46.67749 | 5041 ft | 262 kts | 338° |
| 2026-04-28 13:24 | 25.05497 | 46.67060 | 5864 ft | 267 kts | 338° |
| 2026-04-28 13:25 | 25.07501 | 46.66288 | 6809 ft | 273 kts | 341° |
| 2026-04-28 13:25 | 25.09405 | 46.65963 | 7574 ft | 283 kts | 356° |
| 2026-04-28 13:25 | 25.11461 | 46.66226 | 8146 ft | 303 kts | 14° |
| 2026-04-28 13:25 | 25.13487 | 46.66987 | 8888 ft | 312 kts | 17° |
| 2026-04-28 13:26 | 25.15516 | 46.67923 | 9644 ft | 321 kts | 29° |
| 2026-04-28 13:26 | 25.17265 | 46.69492 | 10359 ft | 329 kts | 49° |
| 2026-04-28 13:26 | 25.18489 | 46.71626 | 11104 ft | 332 kts | 70° |
| 2026-04-28 13:26 | 25.19147 | 46.74081 | 11857 ft | 335 kts | 77° |
| 2026-04-28 13:27 | 25.19726 | 46.76581 | 12612 ft | 339 kts | 77° |
| 2026-04-28 13:27 | 25.20311 | 46.79168 | 13385 ft | 345 kts | 77° |
| 2026-04-28 13:27 | 25.20885 | 46.81722 | 14066 ft | 350 kts | 77° |
| 2026-04-28 13:27 | 25.21482 | 46.84387 | 14679 ft | 358 kts | 77° |
| 2026-04-28 13:28 | 25.22098 | 46.87129 | 14826 ft | 382 kts | 77° |
| 2026-04-28 13:28 | 25.22759 | 46.90063 | 14951 ft | 404 kts | 77° |
| 2026-04-28 13:28 | 25.23221 | 46.92107 | 15030 ft | 418 kts | 77° |
| 2026-04-28 13:28 | 25.23955 | 46.95333 | 15152 ft | 438 kts | 77° |
| 2026-04-28 13:29 | 25.24710 | 46.98642 | 15511 ft | 449 kts | 76° |
| 2026-04-28 13:29 | 25.25479 | 47.02011 | 16054 ft | 454 kts | 76° |
| 2026-04-28 13:29 | 25.26254 | 47.05409 | 16634 ft | 458 kts | 77° |
| 2026-04-28 13:29 | 25.27034 | 47.08853 | 17211 ft | 462 kts | 77° |
| 2026-04-28 13:30 | 25.27818 | 47.12334 | 17771 ft | 466 kts | 77° |
| 2026-04-28 13:30 | 25.28598 | 47.15791 | 18291 ft | 470 kts | 77° |
| 2026-04-28 13:30 | 25.29392 | 47.19312 | 18745 ft | 474 kts | 77° |
| 2026-04-28 13:30 | 25.30193 | 47.22865 | 19191 ft | 478 kts | 77° |
| 2026-04-28 13:31 | 25.31819 | 47.30103 | 20050 ft | 485 kts | 77° |
| 2026-04-28 13:31 | 25.32627 | 47.33717 | 20456 ft | 489 kts | 77° |
| 2026-04-28 13:31 | 25.33452 | 47.37410 | 20863 ft | 493 kts | 77° |
| 2026-04-28 13:32 | 25.34278 | 47.41107 | 21253 ft | 497 kts | 77° |
| 2026-04-28 13:32 | 25.35097 | 47.44778 | 21624 ft | 500 kts | 77° |
| 2026-04-28 13:32 | 25.35929 | 47.48529 | 22003 ft | 503 kts | 77° |
| 2026-04-28 13:32 | 25.36769 | 47.52312 | 22383 ft | 507 kts | 77° |
| 2026-04-28 13:33 | 25.37611 | 47.56107 | 22746 ft | 510 kts | 77° |
| 2026-04-28 13:33 | 25.38461 | 47.59939 | 23104 ft | 513 kts | 78° |
| 2026-04-28 13:33 | 25.39314 | 47.63789 | 23449 ft | 517 kts | 78° |
| 2026-04-28 13:33 | 25.40171 | 47.67656 | 23718 ft | 520 kts | 77° |
| 2026-04-28 13:34 | 25.41285 | 47.71469 | 23983 ft | 524 kts | 67° |
| 2026-04-28 13:34 | 25.42787 | 47.75161 | 24246 ft | 527 kts | 66° |
| 2026-04-28 13:34 | 25.44303 | 47.78867 | 24508 ft | 530 kts | 66° |
| 2026-04-28 13:34 | 25.45824 | 47.82594 | 24738 ft | 533 kts | 66° |
| 2026-04-28 13:35 | 25.47347 | 47.86336 | 24814 ft | 534 kts | 66° |
| 2026-04-28 13:35 | 25.48869 | 47.90082 | 24832 ft | 534 kts | 66° |
| 2026-04-28 13:35 | 25.50393 | 47.93839 | 24827 ft | 534 kts | 66° |
| 2026-04-28 13:35 | 25.51911 | 47.97590 | 24827 ft | 534 kts | 66° |
| 2026-04-28 13:36 | 25.53430 | 48.01343 | 24824 ft | 534 kts | 66° |
| 2026-04-28 13:36 | 25.54953 | 48.05106 | 24825 ft | 534 kts | 66° |
| 2026-04-28 13:36 | 25.56492 | 48.08912 | 24821 ft | 534 kts | 66° |
| 2026-04-28 13:36 | 25.58010 | 48.12671 | 24822 ft | 535 kts | 66° |
| 2026-04-28 13:37 | 25.59530 | 48.16427 | 24819 ft | 535 kts | 66° |
| 2026-04-28 13:37 | 25.61056 | 48.20190 | 24818 ft | 535 kts | 66° |
| 2026-04-28 13:37 | 25.62578 | 48.23947 | 24818 ft | 534 kts | 66° |
| 2026-04-28 13:37 | 25.64098 | 48.27706 | 24817 ft | 534 kts | 66° |
| 2026-04-28 13:38 | 25.65632 | 48.31519 | 24812 ft | 534 kts | 66° |
| 2026-04-28 13:38 | 25.67141 | 48.35280 | 24811 ft | 534 kts | 66° |
| 2026-04-28 13:38 | 25.68720 | 48.39011 | 24806 ft | 534 kts | 60° |
| 2026-04-28 13:38 | 25.70701 | 48.42556 | 24808 ft | 534 kts | 57° |
| 2026-04-28 13:39 | 25.72701 | 48.46031 | 24807 ft | 534 kts | 57° |
| 2026-04-28 13:39 | 25.74702 | 48.49513 | 24804 ft | 535 kts | 57° |
| 2026-04-28 13:39 | 25.76697 | 48.52994 | 24803 ft | 535 kts | 57° |
| 2026-04-28 13:39 | 25.78693 | 48.56483 | 24801 ft | 535 kts | 57° |
| 2026-04-28 13:40 | 25.80683 | 48.59969 | 24799 ft | 535 kts | 57° |
| 2026-04-28 13:40 | 25.82673 | 48.63460 | 24794 ft | 535 kts | 57° |
| 2026-04-28 13:40 | 25.84655 | 48.66937 | 24454 ft | 530 kts | 57° |
| 2026-04-28 13:40 | 25.86604 | 48.70357 | 24169 ft | 513 kts | 57° |
| 2026-04-28 13:41 | 25.88500 | 48.73680 | 24054 ft | 494 kts | 57° |
| 2026-04-28 13:41 | 25.90308 | 48.76851 | 23873 ft | 479 kts | 57° |
| 2026-04-28 13:41 | 25.92063 | 48.79934 | 23654 ft | 466 kts | 57° |
| 2026-04-28 13:41 | 25.93784 | 48.82949 | 23259 ft | 460 kts | 55° |
| 2026-04-28 13:42 | 25.95752 | 48.85716 | 22777 ft | 452 kts | 43° |
| 2026-04-28 13:42 | 25.98014 | 48.88111 | 22291 ft | 447 kts | 40° |
| 2026-04-28 13:42 | 26.00281 | 48.90465 | 21729 ft | 446 kts | 40° |
| 2026-04-28 13:42 | 26.02544 | 48.92821 | 21101 ft | 446 kts | 40° |
| 2026-04-28 13:43 | 26.04815 | 48.95187 | 20482 ft | 446 kts | 40° |
| 2026-04-28 13:43 | 26.07050 | 48.97514 | 19893 ft | 446 kts | 40° |
| 2026-04-28 13:43 | 26.09316 | 48.99873 | 19307 ft | 445 kts | 40° |
| 2026-04-28 13:43 | 26.11574 | 49.02225 | 18730 ft | 444 kts | 40° |
| 2026-04-28 13:44 | 26.13824 | 49.04572 | 18166 ft | 443 kts | 40° |
| 2026-04-28 13:44 | 26.16067 | 49.06917 | 17529 ft | 442 kts | 40° |
| 2026-04-28 13:44 | 26.18307 | 49.09260 | 16890 ft | 441 kts | 40° |
| 2026-04-28 13:44 | 26.20537 | 49.11595 | 16260 ft | 439 kts | 41° |
| 2026-04-28 13:45 | 26.22757 | 49.13922 | 15648 ft | 437 kts | 41° |
| 2026-04-28 13:45 | 26.24996 | 49.16267 | 15037 ft | 435 kts | 41° |
| 2026-04-28 13:45 | 26.27195 | 49.18565 | 14449 ft | 433 kts | 41° |
| 2026-04-28 13:45 | 26.29381 | 49.20852 | 13870 ft | 430 kts | 41° |
| 2026-04-28 13:46 | 26.31557 | 49.23132 | 13252 ft | 427 kts | 41° |
| 2026-04-28 13:46 | 26.33715 | 49.25395 | 12632 ft | 424 kts | 41° |
| 2026-04-28 13:46 | 26.35857 | 49.27643 | 12004 ft | 420 kts | 41° |
| 2026-04-28 13:46 | 26.37977 | 49.29866 | 11389 ft | 416 kts | 41° |
| 2026-04-28 13:47 | 26.40076 | 49.32068 | 10792 ft | 412 kts | 42° |
| 2026-04-28 13:47 | 26.42154 | 49.34247 | 10203 ft | 408 kts | 42° |
| 2026-04-28 13:47 | 26.44207 | 49.36400 | 9629 ft | 403 kts | 42° |
| 2026-04-28 13:47 | 26.46264 | 49.38561 | 9007 ft | 398 kts | 42° |
| 2026-04-28 13:48 | 26.48240 | 49.40639 | 8772 ft | 382 kts | 43° |
| 2026-04-28 13:48 | 26.50124 | 49.42618 | 8751 ft | 361 kts | 42° |
| 2026-04-28 13:48 | 26.51926 | 49.44512 | 8760 ft | 341 kts | 42° |
| 2026-04-28 13:48 | 26.53622 | 49.46297 | 8557 ft | 331 kts | 43° |
| 2026-04-28 13:49 | 26.55289 | 49.48058 | 8111 ft | 329 kts | 43° |
| 2026-04-28 13:49 | 26.56966 | 49.49830 | 7517 ft | 333 kts | 43° |
| 2026-04-28 13:49 | 26.58656 | 49.51615 | 6923 ft | 336 kts | 43° |
| 2026-04-28 13:49 | 26.60362 | 49.53415 | 6340 ft | 338 kts | 43° |
| 2026-04-28 13:50 | 26.62076 | 49.55221 | 5734 ft | 338 kts | 43° |
| 2026-04-28 13:50 | 26.63753 | 49.57047 | 5021 ft | 343 kts | 49° |
| 2026-04-28 13:50 | 26.65167 | 49.59222 | 4289 ft | 337 kts | 56° |
| 2026-04-28 13:50 | 26.66477 | 49.61352 | 3577 ft | 327 kts | 56° |
| 2026-04-28 13:51 | 26.67743 | 49.63417 | 2866 ft | 318 kts | 57° |
| 2026-04-28 13:51 | 26.68977 | 49.65432 | 2235 ft | 307 kts | 57° |
| 2026-04-28 13:51 | 26.69694 | 49.66735 | 2084 ft | 287 kts | 69° |
| 2026-04-28 13:51 | 26.69935 | 49.69399 | 1977 ft | 237 kts | 110° |
| 2026-04-28 13:52 | 26.69541 | 49.70493 | 2007 ft | 212 kts | 127° |
| 2026-04-28 13:52 | 26.68667 | 49.71648 | 1995 ft | 180 kts | 146° |
| 2026-04-28 13:52 | 26.67651 | 49.72304 | 1985 ft | 163 kts | 164° |
| 2026-04-28 13:52 | 26.66582 | 49.72650 | 1997 ft | 158 kts | 169° |
| 2026-04-28 13:53 | 26.65525 | 49.72978 | 1992 ft | 157 kts | 169° |
| 2026-04-28 13:53 | 26.64476 | 49.73303 | 1993 ft | 157 kts | 169° |
| 2026-04-28 13:53 | 26.63435 | 49.73626 | 1989 ft | 152 kts | 168° |
| 2026-04-28 13:53 | 26.62431 | 49.73937 | 1995 ft | 148 kts | 168° |
| 2026-04-28 13:54 | 26.61431 | 49.74246 | 2003 ft | 153 kts | 168° |
| 2026-04-28 13:54 | 26.60389 | 49.74568 | 2002 ft | 157 kts | 168° |
| 2026-04-28 13:54 | 26.59336 | 49.74895 | 1984 ft | 158 kts | 168° |
| 2026-04-28 13:54 | 26.58276 | 49.75223 | 1854 ft | 158 kts | 168° |
| 2026-04-28 13:55 | 26.57207 | 49.75554 | 1677 ft | 157 kts | 167° |
| 2026-04-28 13:55 | 26.56165 | 49.75877 | 1499 ft | 153 kts | 167° |
| 2026-04-28 13:55 | 26.55165 | 49.76187 | 1310 ft | 146 kts | 165° |
| 2026-04-28 13:55 | 26.54194 | 49.76487 | 1118 ft | 142 kts | 165° |
| 2026-04-28 13:56 | 26.53275 | 49.76771 | 973 ft | 134 kts | 165° |
| 2026-04-28 13:56 | 26.52371 | 49.77051 | 801 ft | 136 kts | 162° |
| 2026-04-28 13:56 | 26.51454 | 49.77329 | 621 ft | 135 kts | 162° |
| 2026-04-28 13:56 | 26.50530 | 49.77600 | 424 ft | 138 kts | 160° |
| 2026-04-28 13:57 | 26.49593 | 49.77905 | 288 ft | 143 kts | 160° |
| 2026-04-28 13:57 | 26.48617 | 49.78215 | 118 ft | 144 kts | 161° |
| 2026-04-28 13:57 | 26.47810 | 49.78457 | 88 ft | 61 kts | 160° |
| 2026-04-28 13:57 | 26.47574 | 49.78538 | 92 ft | 33 kts | 163° |
| 2026-04-28 13:58 | 26.47352 | 49.78611 | 91 ft | 33 kts | 165° |
| 2026-04-28 13:58 | 26.47123 | 49.78681 | 88 ft | 35 kts | 164° |
| 2026-04-28 13:58 | 26.46885 | 49.78757 | 86 ft | 36 kts | 163° |
| 2026-04-28 13:58 | 26.46663 | 49.78842 | 88 ft | 25 kts | 150° |
| 2026-04-28 13:59 | 26.46527 | 49.78976 | 87 ft | 27 kts | 134° |
| 2026-04-28 13:59 | 26.46423 | 49.79094 | 87 ft | 19 kts | 135° |
| 2026-04-28 13:59 | 26.46400 | 49.79200 | 85 ft | 4 kts | 76° |
| 2026-04-28 13:59 | 26.46400 | 49.79202 | 85 ft | 0 kts | 75° |
| 2026-04-28 14:00 | 26.46401 | 49.79202 | 85 ft | 1 kts | 75° |
| 2026-04-28 14:00 | 26.46421 | 49.79283 | 85 ft | 16 kts | 73° |
| 2026-04-28 14:00 | 26.46456 | 49.79415 | 87 ft | 18 kts | 73° |
| 2026-04-28 14:00 | 26.46544 | 49.79491 | 88 ft | 18 kts | 353° |
| 2026-04-28 14:01 | 26.46678 | 49.79471 | 87 ft | 21 kts | 345° |
| 2026-04-28 14:01 | 26.46810 | 49.79448 | 86 ft | 13 kts | 32° |
| 2026-04-28 14:01 | 26.46831 | 49.79508 | 86 ft | 3 kts | 75° |
| 2026-04-28 14:01 | 26.46833 | 49.79513 | 85 ft | 0 kts | 75° |
| 2026-04-28 14:03 | 26.51285 | 49.77378 | 475 ft | 129 kts | 161° |
| 2026-04-28 14:03 | 26.50832 | 49.77510 | 393 ft | 138 kts | 160° |
| 2026-04-28 14:04 | 26.49899 | 49.77801 | 306 ft | 141 kts | 160° |